Time;durP1;ratioP1;P1;durP2;ratioP2;P2;SDS_P1;SDS_P2;PMS_P1;PMS_P2;Temp;Humidity;BMP_temperature;BMP_pressure;BME280_temperature;BME280_humidity;BME280_pressure;Samples;Min_cycle;Max_cycle;Signal;HPM_P1;HPM_P2
2021/08/28 00:01:40;;;;;;;2.77;2.57;;;13.80;99.90;;;;;;5013265;28;20204;-69
2021/08/28 00:04:05;;;;;;;2.93;2.43;;;13.80;99.90;;;;;;5013318;28;20164;-72
2021/08/28 00:06:30;;;;;;;2.10;2.00;;;13.80;99.90;;;;;;5013255;28;20203;-70
2021/08/28 00:08:56;;;;;;;3.80;2.33;;;13.80;99.90;;;;;;5013185;28;20171;-69
2021/08/28 00:11:21;;;;;;;2.70;2.50;;;13.80;99.90;;;;;;5013006;28;20256;-72
2021/08/28 00:13:47;;;;;;;3.20;2.37;;;13.80;99.90;;;;;;5012997;28;20569;-71
2021/08/28 00:16:13;;;;;;;3.00;2.73;;;13.80;99.90;;;;;;5013056;28;20275;-71
2021/08/28 00:18:38;;;;;;;3.03;2.73;;;13.80;99.90;;;;;;5013053;28;20705;-71
2021/08/28 00:21:05;;;;;;;3.37;3.07;;;13.80;99.90;;;;;;5012904;28;20304;-70
2021/08/28 00:23:30;;;;;;;2.70;2.50;;;13.80;99.90;;;;;;5012917;28;20191;-69
2021/08/28 00:25:56;;;;;;;3.90;2.67;;;13.80;99.90;;;;;;5012849;28;20408;-69
2021/08/28 00:28:21;;;;;;;3.83;2.70;;;13.80;99.90;;;;;;5012788;28;20164;-69
2021/08/28 00:30:47;;;;;;;3.07;2.87;;;13.80;99.90;;;;;;5013040;28;20666;-69
2021/08/28 00:33:15;;;;;;;2.80;2.60;;;13.80;99.90;;;;;;5012773;28;20192;-69
2021/08/28 00:35:41;;;;;;;3.83;3.43;;;13.80;99.90;;;;;;5011886;28;20267;-70
2021/08/28 00:38:07;;;;;;;3.90;3.50;;;13.80;99.90;;;;;;5012614;28;20759;-69
2021/08/28 00:40:34;;;;;;;3.23;2.90;;;13.80;99.90;;;;;;5012532;28;20470;-70
2021/08/28 00:42:59;;;;;;;3.23;3.03;;;13.80;99.90;;;;;;5012607;28;20729;-71
2021/08/28 00:45:27;;;;;;;3.23;3.03;;;13.80;99.90;;;;;;5012714;28;20399;-69
2021/08/28 00:48:08;;;;;;;3.13;2.90;;;13.80;99.90;;;;;;5012729;28;20418;-69
2021/08/28 00:50:36;;;;;;;3.40;3.20;;;13.80;99.90;;;;;;5012671;28;20446;-69
2021/08/28 00:53:03;;;;;;;3.40;3.20;;;13.80;99.90;;;;;;5012300;28;20834;-70
2021/08/28 00:55:34;;;;;;;3.37;3.07;;;13.80;99.90;;;;;;5012585;28;20407;-69
2021/08/28 00:58:00;;;;;;;4.80;4.40;;;13.80;99.90;;;;;;5012438;28;20441;-69
2021/08/28 01:00:26;;;;;;;3.73;3.33;;;13.80;99.90;;;;;;5012325;28;20462;-69
2021/08/28 01:02:52;;;;;;;5.37;4.10;;;13.70;99.90;;;;;;5012426;28;20192;-69
2021/08/28 01:05:26;;;;;;;5.30;3.77;;;13.70;99.90;;;;;;5012190;28;20411;-69
2021/08/28 01:08:26;;;;;;;3.40;3.10;;;13.70;99.90;;;;;;5012425;28;20442;-69
2021/08/28 01:11:26;;;;;;;4.03;3.60;;;13.70;99.90;;;;;;5012723;28;20418;-69
2021/08/28 01:13:56;;;;;;;4.23;3.47;;;13.70;99.90;;;;;;5012021;28;20433;-69
2021/08/28 01:16:22;;;;;;;5.30;3.27;;;13.70;99.90;;;;;;5011996;28;20779;-70
2021/08/28 01:18:51;;;;;;;5.23;3.73;;;13.70;99.90;;;;;;5012246;28;20403;-70
2021/08/28 01:21:25;;;;;;;4.70;4.30;;;13.70;99.90;;;;;;5012011;28;20462;-70
2021/08/28 01:23:52;;;;;;;3.77;3.47;;;13.60;99.90;;;;;;5010800;28;20462;-69
2021/08/28 01:26:21;;;;;;;5.70;4.10;;;13.70;99.90;;;;;;5012058;28;20411;-70
2021/08/28 01:29:01;;;;;;;4.77;4.30;;;13.60;99.90;;;;;;5012312;28;20407;-70
2021/08/28 01:31:28;;;;;;;10.27;4.50;;;13.60;99.90;;;;;;5010397;28;20423;-69
2021/08/28 01:33:54;;;;;;;4.87;4.47;;;13.60;99.90;;;;;;5012059;28;20435;-69
2021/08/28 01:36:20;;;;;;;5.03;4.10;;;13.60;99.90;;;;;;5012045;28;20403;-69
2021/08/28 01:38:47;;;;;;;5.20;4.70;;;13.60;99.90;;;;;;5012263;28;20410;-69
2021/08/28 01:41:12;;;;;;;4.73;4.33;;;13.60;99.90;;;;;;4994519;28;21059;-69
2021/08/28 01:43:38;;;;;;;4.60;4.20;;;13.50;99.90;;;;;;5012831;28;20431;-69
2021/08/28 01:46:06;;;;;;;5.10;4.50;;;13.60;99.90;;;;;;5013812;28;20172;-69
2021/08/28 01:48:32;;;;;;;5.10;4.60;;;13.60;99.90;;;;;;5016216;28;20410;-69
2021/08/28 01:50:59;;;;;;;5.20;4.67;;;13.60;99.90;;;;;;5015710;28;20828;-69
2021/08/28 01:53:25;;;;;;;5.63;5.13;;;13.60;99.90;;;;;;5015668;28;20441;-69
2021/08/28 01:55:51;;;;;;;5.23;4.73;;;13.50;99.90;;;;;;5015715;28;20415;-69
2021/08/28 01:58:16;;;;;;;7.67;4.80;;;13.50;99.90;;;;;;5015475;28;20422;-69
2021/08/28 02:00:42;;;;;;;5.53;5.03;;;13.50;99.90;;;;;;5015603;28;20204;-69
2021/08/28 02:03:07;;;;;;;5.60;5.10;;;13.50;99.90;;;;;;5015448;28;20664;-69
2021/08/28 02:05:39;;;;;;;6.17;5.67;;;13.50;99.90;;;;;;5015398;28;20533;-69
2021/08/28 02:08:09;;;;;;;6.00;5.40;;;13.50;99.90;;;;;;5015345;28;20169;-69
2021/08/28 02:11:12;;;;;;;6.30;5.80;;;13.50;99.90;;;;;;5015364;28;20415;-70
2021/08/28 02:13:50;;;;;;;6.47;5.97;;;13.50;99.90;;;;;;4935249;29;20481;-70
2021/08/28 02:16:21;;;;;;;6.43;5.73;;;13.50;99.90;;;;;;5006763;28;20445;-69
2021/08/28 02:18:54;;;;;;;7.53;6.80;;;13.50;99.90;;;;;;5015128;28;20457;-70
2021/08/28 02:21:23;;;;;;;6.97;6.27;;;13.50;99.90;;;;;;5015234;28;20493;-70
2021/08/28 02:24:04;;;;;;;6.00;5.50;;;13.60;99.90;;;;;;5015075;28;20456;-70
2021/08/28 02:26:44;;;;;;;7.10;5.97;;;13.50;99.90;;;;;;5015119;28;20490;-70
2021/08/28 02:29:16;;;;;;;6.73;5.63;;;13.50;99.90;;;;;;5015062;28;20403;-70
2021/08/28 02:31:45;;;;;;;7.70;6.90;;;13.50;99.90;;;;;;5015053;28;20403;-69
2021/08/28 02:34:12;;;;;;;7.77;6.90;;;13.50;99.90;;;;;;5014964;28;20407;-69
2021/08/28 02:36:42;;;;;;;7.73;6.40;;;13.60;99.90;;;;;;5014753;28;20407;-70
2021/08/28 02:39:12;;;;;;;7.23;6.53;;;13.50;99.90;;;;;;5014945;28;20898;-70
2021/08/28 02:41:38;;;;;;;7.50;6.70;;;13.60;99.90;;;;;;5014674;28;20859;-70
2021/08/28 02:44:05;;;;;;;8.73;7.00;;;13.50;99.90;;;;;;5014710;28;20426;-70
2021/08/28 02:46:32;;;;;;;6.90;6.30;;;13.60;99.90;;;;;;5014763;28;20407;-70
2021/08/28 02:48:58;;;;;;;6.70;5.80;;;13.50;99.90;;;;;;5015024;28;20411;-70
2021/08/28 02:51:28;;;;;;;8.60;6.97;;;13.50;99.90;;;;;;5014472;28;20954;-70
2021/08/28 02:53:54;;;;;;;6.53;5.83;;;13.50;99.90;;;;;;5014732;28;20809;-70
2021/08/28 02:56:24;;;;;;;8.03;7.23;;;13.50;99.90;;;;;;5014574;28;20422;-69
2021/08/28 02:58:50;;;;;;;7.63;6.87;;;13.50;99.90;;;;;;5013460;28;20187;-69
2021/08/28 03:01:16;;;;;;;8.27;7.43;;;13.50;99.90;;;;;;5014390;28;20497;-70
2021/08/28 03:03:42;;;;;;;7.50;6.47;;;13.40;99.90;;;;;;5014214;28;20192;-70
2021/08/28 03:06:09;;;;;;;8.43;7.63;;;13.40;99.90;;;;;;5014416;28;20407;-70
2021/08/28 03:08:35;;;;;;;9.23;7.50;;;13.50;99.90;;;;;;5014338;28;20417;-69
2021/08/28 03:11:02;;;;;;;7.73;7.03;;;13.40;99.90;;;;;;5014220;28;20490;-70
2021/08/28 03:13:28;;;;;;;8.37;7.47;;;13.40;99.90;;;;;;5014182;28;20200;-70
2021/08/28 03:15:55;;;;;;;10.00;7.83;;;13.40;99.90;;;;;;5014144;28;20465;-70
2021/08/28 03:18:23;;;;;;;8.83;7.43;;;13.40;99.90;;;;;;5014116;28;20403;-71
2021/08/28 03:20:53;;;;;;;7.73;7.03;;;13.50;99.90;;;;;;5014320;28;20454;-71
2021/08/28 03:23:21;;;;;;;7.87;7.10;;;13.50;99.90;;;;;;5014210;28;20423;-71
2021/08/28 03:25:48;;;;;;;7.73;6.90;;;13.50;99.90;;;;;;5014760;28;20573;-71
2021/08/28 03:28:15;;;;;;;7.60;6.80;;;13.50;99.90;;;;;;5014084;28;20486;-70
2021/08/28 03:30:44;;;;;;;7.83;6.93;;;13.50;99.90;;;;;;5013944;28;20421;-70
2021/08/28 03:33:13;;;;;;;8.77;7.93;;;13.40;99.90;;;;;;5013892;28;20438;-70
2021/08/28 03:35:40;;;;;;;9.70;7.90;;;13.50;99.90;;;;;;5014088;28;20775;-70
2021/08/28 03:38:05;;;;;;;9.00;7.93;;;13.40;99.90;;;;;;5013822;28;20926;-70
2021/08/28 03:40:31;;;;;;;10.80;7.33;;;13.40;99.90;;;;;;5013605;28;20458;-70
2021/08/28 03:42:57;;;;;;;8.47;7.40;;;13.30;99.90;;;;;;5013628;28;20651;-70
2021/08/28 03:45:27;;;;;;;9.97;8.00;;;13.40;99.90;;;;;;5013625;28;20203;-70
2021/08/28 03:47:53;;;;;;;9.03;8.23;;;13.40;99.90;;;;;;5013901;28;20165;-70
2021/08/28 03:50:18;;;;;;;9.07;7.60;;;13.40;99.90;;;;;;5013816;28;21007;-70
2021/08/28 03:52:44;;;;;;;9.83;8.03;;;13.30;99.90;;;;;;5013378;28;20198;-70
2021/08/28 03:55:09;;;;;;;8.33;7.50;;;13.30;99.90;;;;;;5013488;28;20242;-70
2021/08/28 03:57:35;;;;;;;13.90;9.27;;;13.30;99.90;;;;;;5013369;28;20173;-70
2021/08/28 04:00:00;;;;;;;8.90;8.10;;;13.40;99.90;;;;;;5013263;28;20222;-69
2021/08/28 04:02:26;;;;;;;10.10;8.53;;;13.30;99.90;;;;;;5013066;28;20195;-69
2021/08/28 04:04:51;;;;;;;7.57;6.80;;;13.40;99.90;;;;;;5013297;28;20183;-69
2021/08/28 04:07:17;;;;;;;9.20;8.20;;;13.40;99.90;;;;;;5013273;28;20527;-69
2021/08/28 04:09:42;;;;;;;10.70;8.60;;;13.40;99.90;;;;;;5012964;28;20172;-70
2021/08/28 04:12:08;;;;;;;7.90;7.10;;;13.40;99.90;;;;;;5013087;28;20196;-70
2021/08/28 04:14:33;;;;;;;7.93;7.20;;;13.40;99.90;;;;;;5013197;28;20690;-70
2021/08/28 04:16:58;;;;;;;8.47;7.40;;;13.40;99.90;;;;;;5013003;28;20194;-70
2021/08/28 04:19:24;;;;;;;8.70;7.40;;;13.40;99.90;;;;;;5012931;28;20223;-70
2021/08/28 04:21:49;;;;;;;9.77;7.87;;;13.30;99.90;;;;;;5012813;28;20279;-70
2021/08/28 04:24:15;;;;;;;8.17;7.37;;;13.30;99.90;;;;;;5012885;28;20512;-70
2021/08/28 04:26:40;;;;;;;10.57;8.00;;;13.30;99.90;;;;;;5012820;28;20200;-70
2021/08/28 04:29:06;;;;;;;9.03;8.13;;;13.30;99.90;;;;;;5012648;28;20168;-70
2021/08/28 04:31:31;;;;;;;9.30;8.23;;;13.30;99.90;;;;;;5012932;28;20179;-70
2021/08/28 04:33:57;;;;;;;9.73;8.10;;;13.40;99.90;;;;;;5012650;28;20215;-70
2021/08/28 04:36:22;;;;;;;8.63;7.73;;;13.30;99.90;;;;;;5012739;28;20176;-70
2021/08/28 04:38:48;;;;;;;8.67;7.77;;;13.40;99.90;;;;;;5012697;28;20251;-70
2021/08/28 04:41:13;;;;;;;9.23;7.90;;;13.30;99.90;;;;;;5012635;28;20261;-70
2021/08/28 04:43:38;;;;;;;9.57;8.20;;;13.30;99.90;;;;;;5012657;28;20275;-71
2021/08/28 04:46:04;;;;;;;8.00;7.20;;;13.30;99.90;;;;;;5012593;28;20215;-70
2021/08/28 04:48:31;;;;;;;10.20;8.57;;;13.30;99.90;;;;;;5012646;28;20203;-70
2021/08/28 04:50:57;;;;;;;8.93;7.70;;;13.30;99.90;;;;;;5012729;28;20175;-70
2021/08/28 04:53:23;;;;;;;10.10;7.10;;;13.40;99.90;;;;;;5012389;28;20922;-70
2021/08/28 04:55:48;;;;;;;8.07;7.17;;;13.40;99.90;;;;;;5012314;28;20415;-70
2021/08/28 04:58:14;;;;;;;9.07;7.77;;;13.40;99.90;;;;;;5012133;28;20179;-70
2021/08/28 05:00:39;;;;;;;8.37;6.80;;;13.50;99.90;;;;;;5012484;28;20290;-70
2021/08/28 05:03:04;;;;;;;9.20;7.47;;;13.40;99.90;;;;;;5012357;28;20191;-71
2021/08/28 05:05:30;;;;;;;8.80;7.00;;;13.30;99.90;;;;;;5012380;28;20639;-71
2021/08/28 05:07:55;;;;;;;7.13;6.33;;;13.40;99.90;;;;;;5012315;28;20597;-71
2021/08/28 05:10:22;;;;;;;8.77;7.43;;;13.40;99.90;;;;;;5012344;28;20168;-71
2021/08/28 05:12:47;;;;;;;7.90;6.80;;;13.30;99.90;;;;;;5012200;28;20279;-71
2021/08/28 05:15:13;;;;;;;7.50;6.70;;;13.20;99.90;;;;;;5012095;28;20407;-71
2021/08/28 05:17:38;;;;;;;8.03;7.13;;;13.30;99.90;;;;;;5012298;28;20644;-71
2021/08/28 05:20:05;;;;;;;6.93;6.00;;;13.30;99.90;;;;;;5012373;28;20627;-71
2021/08/28 05:22:30;;;;;;;7.40;6.60;;;13.10;99.90;;;;;;5011641;28;20271;-71
2021/08/28 05:24:56;;;;;;;6.03;5.33;;;13.10;99.90;;;;;;5012560;28;20490;-71
2021/08/28 05:27:21;;;;;;;8.37;5.90;;;13.20;99.90;;;;;;5012213;28;20172;-71
2021/08/28 05:29:47;;;;;;;6.83;5.60;;;13.10;99.90;;;;;;5012053;28;20647;-71
2021/08/28 05:32:12;;;;;;;6.20;5.10;;;13.00;99.90;;;;;;5011972;28;20216;-71
2021/08/28 05:34:38;;;;;;;8.33;5.40;;;13.10;99.90;;;;;;5012097;28;20175;-71
2021/08/28 05:37:03;;;;;;;5.43;4.97;;;13.10;99.90;;;;;;5012012;28;20255;-71
2021/08/28 05:39:30;;;;;;;7.30;6.03;;;13.10;99.90;;;;;;5011792;28;20542;-71
2021/08/28 05:41:56;;;;;;;5.33;4.83;;;13.10;99.90;;;;;;5011651;28;20175;-71
2021/08/28 05:44:22;;;;;;;9.60;5.07;;;13.20;99.90;;;;;;5012035;28;20415;-71
2021/08/28 05:46:47;;;;;;;7.03;5.00;;;13.20;99.90;;;;;;5011731;28;20489;-71
2021/08/28 05:49:12;;;;;;;7.20;5.67;;;13.20;99.90;;;;;;5011767;28;20176;-71
2021/08/28 05:51:38;;;;;;;6.80;5.60;;;13.30;99.90;;;;;;5011832;28;20247;-71
2021/08/28 05:54:03;;;;;;;5.27;4.50;;;13.30;99.90;;;;;;5011875;28;20192;-71
2021/08/28 05:56:29;;;;;;;7.87;5.50;;;13.30;99.90;;;;;;5011722;28;20177;-71
2021/08/28 05:58:54;;;;;;;4.13;3.73;;;13.40;99.90;;;;;;5011506;28;20183;-71
2021/08/28 06:01:20;;;;;;;4.97;4.30;;;13.50;99.90;;;;;;5011809;28;20257;-71
2021/08/28 06:03:45;;;;;;;5.50;4.30;;;13.50;99.90;;;;;;5011539;28;20284;-71
2021/08/28 06:06:11;;;;;;;4.90;4.40;;;13.60;99.90;;;;;;5011703;28;20172;-71
2021/08/28 06:08:36;;;;;;;5.10;4.50;;;13.70;99.90;;;;;;5011327;28;20183;-71
2021/08/28 06:11:02;;;;;;;4.77;4.00;;;13.60;99.90;;;;;;5011517;28;20508;-71
2021/08/28 06:13:27;;;;;;;5.70;4.70;;;13.70;99.90;;;;;;5011479;28;20192;-71
2021/08/28 06:15:53;;;;;;;6.30;4.83;;;13.40;99.90;;;;;;5011447;28;20569;-71
2021/08/28 06:18:18;;;;;;;5.07;3.80;;;13.60;99.90;;;;;;5011459;28;20808;-71
2021/08/28 06:20:44;;;;;;;4.53;4.00;;;13.60;99.90;;;;;;4993822;28;20204;-71
2021/08/28 06:23:09;;;;;;;4.43;4.03;;;13.70;99.90;;;;;;5011319;28;20267;-71
2021/08/28 06:25:35;;;;;;;4.23;3.80;;;13.50;99.90;;;;;;5011442;28;20165;-71
2021/08/28 06:28:01;;;;;;;4.23;3.83;;;13.60;99.90;;;;;;5011295;28;20161;-71
2021/08/28 06:30:27;;;;;;;4.27;3.93;;;13.70;99.90;;;;;;5011795;28;20462;-71
2021/08/28 06:32:52;;;;;;;4.33;3.83;;;13.70;99.90;;;;;;5012853;28;20211;-71
2021/08/28 06:35:18;;;;;;;4.00;3.60;;;13.80;99.90;;;;;;5015048;28;20188;-71
2021/08/28 06:37:43;;;;;;;5.23;4.70;;;13.70;99.90;;;;;;5014823;28;20218;-71
2021/08/28 06:40:09;;;;;;;4.90;4.10;;;13.80;99.90;;;;;;5014833;28;20215;-70
2021/08/28 06:42:35;;;;;;;5.70;4.13;;;13.80;99.90;;;;;;5015092;28;20237;-70
2021/08/28 06:45:00;;;;;;;5.27;3.90;;;13.90;99.90;;;;;;5014829;28;20439;-70
2021/08/28 06:47:27;;;;;;;4.30;3.70;;;14.00;99.90;;;;;;5014754;28;20169;-67
2021/08/28 06:49:53;;;;;;;4.60;4.10;;;13.80;99.90;;;;;;5014831;28;20552;-68
2021/08/28 06:52:18;;;;;;;4.37;3.80;;;13.80;99.90;;;;;;5014591;28;20431;-68
2021/08/28 06:54:44;;;;;;;9.40;3.77;;;13.90;99.90;;;;;;5014583;28;20636;-68
2021/08/28 06:57:09;;;;;;;3.93;3.57;;;14.10;99.90;;;;;;5014326;28;20183;-68
2021/08/28 06:59:35;;;;;;;4.87;3.77;;;14.20;99.90;;;;;;5014433;28;20556;-68
2021/08/28 07:02:00;;;;;;;5.00;3.70;;;14.40;99.90;;;;;;5014408;28;20164;-68
2021/08/28 07:04:26;;;;;;;4.60;3.73;;;14.40;99.90;;;;;;5014471;28;20164;-69
2021/08/28 07:06:52;;;;;;;7.33;4.50;;;14.50;99.90;;;;;;5014380;28;20165;-68
2021/08/28 07:09:18;;;;;;;4.73;4.23;;;14.50;99.90;;;;;;5014378;28;20172;-69
2021/08/28 07:11:43;;;;;;;4.43;3.83;;;14.60;99.90;;;;;;5014084;28;20403;-68
2021/08/28 07:14:09;;;;;;;3.70;3.40;;;14.50;99.90;;;;;;5014359;28;20168;-68
2021/08/28 07:16:34;;;;;;;6.13;3.97;;;14.60;99.90;;;;;;5014123;28;20564;-68
2021/08/28 07:18:59;;;;;;;4.07;3.67;;;14.80;99.90;;;;;;5014218;28;20168;-68
2021/08/28 07:21:25;;;;;;;4.20;3.80;;;14.70;99.90;;;;;;4996337;28;20620;-69
2021/08/28 07:23:50;;;;;;;6.17;3.90;;;14.60;99.90;;;;;;5013944;28;20184;-69
2021/08/28 07:26:17;;;;;;;3.60;3.20;;;14.70;99.90;;;;;;5013861;28;20172;-70
2021/08/28 07:28:43;;;;;;;6.53;4.43;;;14.70;99.90;;;;;;5013976;28;20164;-69
2021/08/28 07:31:09;;;;;;;4.97;4.50;;;14.70;99.90;;;;;;5013938;28;20415;-69
2021/08/28 07:33:34;;;;;;;3.60;3.27;;;14.70;99.90;;;;;;5013778;28;20446;-69
2021/08/28 07:36:00;;;;;;;3.50;3.20;;;14.70;99.90;;;;;;5013862;28;20172;-69
2021/08/28 07:38:26;;;;;;;4.47;3.90;;;14.90;99.90;;;;;;5013768;28;20172;-69
2021/08/28 07:40:52;;;;;;;3.77;3.20;;;14.90;99.90;;;;;;5013679;28;20483;-70
2021/08/28 07:43:18;;;;;;;2.87;2.67;;;14.80;99.90;;;;;;5013854;28;20192;-68
2021/08/28 07:45:43;;;;;;;4.43;3.03;;;14.90;99.90;;;;;;5013157;28;20414;-67
2021/08/28 07:48:09;;;;;;;5.57;3.80;;;14.90;99.90;;;;;;5013670;28;20169;-69
2021/08/28 07:50:35;;;;;;;3.67;3.37;;;15.10;99.90;;;;;;5014724;28;20168;-70
2021/08/28 07:53:01;;;;;;;2.90;2.70;;;15.00;99.90;;;;;;5013454;28;20193;-69
2021/08/28 07:55:27;;;;;;;3.50;3.20;;;15.00;99.90;;;;;;5013629;28;20223;-69
2021/08/28 07:57:53;;;;;;;4.10;3.20;;;15.10;99.90;;;;;;5013623;28;20714;-67
2021/08/28 08:00:19;;;;;;;3.27;2.90;;;15.20;99.90;;;;;;5013812;28;20547;-69
2021/08/28 08:02:44;;;;;;;3.47;2.87;;;15.20;99.90;;;;;;5013680;28;20617;-69
2021/08/28 08:05:10;;;;;;;5.43;3.20;;;15.20;99.90;;;;;;5013392;28;20629;-69
2021/08/28 08:07:35;;;;;;;4.13;3.63;;;15.10;99.90;;;;;;5013338;28;20222;-69
2021/08/28 08:10:02;;;;;;;3.80;3.40;;;15.20;99.90;;;;;;5013212;28;20176;-69
2021/08/28 08:12:28;;;;;;;5.23;3.37;;;15.10;99.90;;;;;;5013338;28;20193;-70
2021/08/28 08:14:53;;;;;;;5.23;4.23;;;15.20;99.90;;;;;;5013499;28;20414;-68
2021/08/28 08:17:19;;;;;;;3.90;3.60;;;15.30;99.90;;;;;;5013165;28;20180;-69
2021/08/28 08:19:44;;;;;;;3.97;3.67;;;15.40;99.90;;;;;;5013067;28;20241;-70
2021/08/28 08:22:10;;;;;;;5.03;3.23;;;15.40;99.90;;;;;;5012970;28;20605;-69
2021/08/28 08:24:35;;;;;;;4.70;4.23;;;15.50;99.90;;;;;;5013058;28;20549;-68
2021/08/28 08:27:01;;;;;;;3.30;3.00;;;15.60;99.90;;;;;;5013169;28;20196;-69
2021/08/28 08:29:26;;;;;;;4.20;3.60;;;15.70;99.90;;;;;;5013156;28;20180;-69
2021/08/28 08:31:53;;;;;;;5.20;4.00;;;15.60;99.90;;;;;;4995219;28;20173;-70
2021/08/28 08:34:22;;;;;;;3.90;3.60;;;15.60;99.90;;;;;;5012825;28;20232;-69
2021/08/28 08:36:48;;;;;;;4.23;3.10;;;15.70;99.90;;;;;;5012920;28;20415;-69
2021/08/28 08:39:13;;;;;;;3.73;3.33;;;15.80;99.90;;;;;;5012739;28;20478;-69
2021/08/28 08:41:40;;;;;;;5.87;3.27;;;15.80;99.90;;;;;;5012661;28;20260;-69
2021/08/28 08:44:08;;;;;;;4.57;3.77;;;15.70;99.90;;;;;;5012636;28;20286;-70
2021/08/28 08:46:34;;;;;;;3.20;3.00;;;15.70;99.90;;;;;;5011779;28;20416;-69
2021/08/28 08:49:00;;;;;;;3.63;3.33;;;15.70;99.90;;;;;;5012600;28;20487;-68
2021/08/28 08:51:26;;;;;;;2.90;2.70;;;15.90;99.90;;;;;;5012474;28;20420;-68
2021/08/28 08:53:52;;;;;;;4.60;3.50;;;15.80;99.90;;;;;;5012330;28;20489;-70
2021/08/28 08:56:18;;;;;;;3.00;2.80;;;16.00;99.90;;;;;;5011919;28;20169;-69
2021/08/28 08:58:44;;;;;;;3.20;2.90;;;16.00;99.90;;;;;;5012661;28;20426;-68
2021/08/28 09:01:09;;;;;;;3.43;2.97;;;16.00;99.90;;;;;;5012770;28;20826;-72
2021/08/28 09:03:36;;;;;;;2.83;2.40;;;16.00;99.90;;;;;;5012993;28;20190;-71
2021/08/28 09:06:02;;;;;;;3.30;2.60;;;16.20;99.90;;;;;;5012521;28;20585;-69
2021/08/28 09:08:27;;;;;;;3.30;2.50;;;16.50;99.90;;;;;;5012227;28;20534;-70
2021/08/28 09:10:53;;;;;;;2.40;2.17;;;16.50;99.90;;;;;;5012296;28;20409;-70
2021/08/28 09:13:21;;;;;;;4.40;3.53;;;16.60;99.90;;;;;;5012361;28;20198;-69
2021/08/28 09:16:01;;;;;;;3.33;3.03;;;16.70;99.90;;;;;;5012204;28;20584;-69
2021/08/28 09:18:27;;;;;;;3.47;3.13;;;16.60;99.90;;;;;;5012247;28;20499;-69
2021/08/28 09:20:57;;;;;;;4.60;3.60;;;16.20;99.90;;;;;;5011850;28;20548;-69
2021/08/28 09:23:22;;;;;;;3.80;3.40;;;16.30;99.90;;;;;;5012280;28;20494;-69
2021/08/28 09:25:49;;;;;;;3.30;3.00;;;16.20;99.90;;;;;;5012251;28;20775;-70
2021/08/28 09:28:15;;;;;;;3.33;3.13;;;16.20;99.90;;;;;;5011948;28;20173;-69
2021/08/28 09:30:46;;;;;;;2.83;2.63;;;16.30;99.90;;;;;;5011684;28;20428;-69
2021/08/28 09:33:19;;;;;;;2.70;2.50;;;16.30;99.90;;;;;;5011405;28;20974;-69
2021/08/28 09:35:49;;;;;;;3.63;2.83;;;16.50;99.90;;;;;;5011483;28;20410;-70
2021/08/28 09:38:19;;;;;;;3.50;2.70;;;16.60;99.90;;;;;;5011276;28;20472;-68
2021/08/28 09:40:47;;;;;;;2.77;2.57;;;16.60;99.90;;;;;;5011306;28;20471;-68
2021/08/28 09:43:17;;;;;;;2.60;2.40;;;16.80;99.90;;;;;;5011286;28;20430;-70
2021/08/28 09:45:44;;;;;;;3.23;2.53;;;16.90;99.90;;;;;;5011355;28;20488;-70
2021/08/28 09:48:11;;;;;;;23.00;20.60;;;16.90;99.90;;;;;;5011555;28;20431;-70
2021/08/28 09:50:42;;;;;;;2.50;2.30;;;16.80;99.90;;;;;;5011496;28;20422;-69
2021/08/28 09:53:12;;;;;;;2.37;2.17;;;17.00;99.90;;;;;;5011008;28;20434;-68
2021/08/28 09:55:40;;;;;;;2.67;2.47;;;17.10;99.90;;;;;;5011341;28;20770;-68
2021/08/28 09:58:08;;;;;;;2.47;2.27;;;17.40;99.90;;;;;;5011213;28;20421;-69
2021/08/28 10:00:41;;;;;;;2.53;2.33;;;17.80;99.90;;;;;;5011108;28;20478;-68
2021/08/28 10:03:06;;;;;;;3.57;3.07;;;17.70;99.90;;;;;;5011780;28;20428;-68
2021/08/28 10:05:37;;;;;;;2.10;1.90;;;17.80;99.90;;;;;;5011392;28;20418;-68
2021/08/28 10:08:08;;;;;;;2.67;2.47;;;17.70;99.90;;;;;;5012037;28;20286;-67
2021/08/28 10:10:36;;;;;;;2.03;1.83;;;17.40;99.90;;;;;;5015196;28;20489;-68
2021/08/28 10:13:04;;;;;;;2.80;2.60;;;17.50;99.90;;;;;;5015354;28;20926;-67
2021/08/28 10:15:31;;;;;;;3.77;3.37;;;17.30;99.90;;;;;;5014983;28;20407;-70
2021/08/28 10:17:59;;;;;;;3.13;2.83;;;17.20;99.90;;;;;;5015167;28;20506;-69
2021/08/28 10:20:27;;;;;;;2.37;2.17;;;17.30;99.90;;;;;;5015153;28;20450;-68
2021/08/28 10:22:55;;;;;;;3.33;3.03;;;17.30;99.90;;;;;;5015121;28;20557;-68
2021/08/28 10:25:23;;;;;;;2.97;2.70;;;17.40;99.90;;;;;;5014848;28;20418;-68
2021/08/28 10:27:50;;;;;;;2.60;2.40;;;17.40;99.90;;;;;;5015003;28;20929;-68
2021/08/28 10:30:18;;;;;;;4.43;2.63;;;17.30;99.90;;;;;;5014729;28;20504;-69
2021/08/28 10:32:44;;;;;;;2.43;2.23;;;17.30;99.90;;;;;;5014565;28;20427;-69
2021/08/28 10:35:11;;;;;;;2.57;2.37;;;17.30;99.90;;;;;;5014633;28;20407;-69
2021/08/28 10:37:37;;;;;;;4.17;2.57;;;17.30;99.90;;;;;;5014476;28;20425;-69
2021/08/28 10:40:23;;;;;;;3.23;2.73;;;17.60;99.90;;;;;;5014519;28;20449;-68
2021/08/28 10:42:51;;;;;;;3.10;1.97;;;17.90;99.90;;;;;;5014322;28;20432;-69
2021/08/28 10:45:24;;;;;;;4.83;4.40;;;18.10;99.90;;;;;;5014491;28;20408;-69
2021/08/28 10:47:56;;;;;;;2.67;2.40;;;18.40;99.90;;;;;;5014861;28;20407;-69
2021/08/28 10:50:22;;;;;;;2.63;2.43;;;18.80;99.90;;;;;;5014867;28;20466;-70
2021/08/28 10:52:49;;;;;;;2.33;2.13;;;19.10;99.90;;;;;;5014356;28;20937;-69
2021/08/28 10:55:16;;;;;;;1.80;1.70;;;19.10;99.90;;;;;;5014273;28;20217;-68
2021/08/28 10:57:41;;;;;;;2.90;2.60;;;19.10;99.90;;;;;;5014171;28;20932;-70
2021/08/28 11:00:08;;;;;;;2.83;2.00;;;18.90;99.90;;;;;;5014249;28;20451;-70
2021/08/28 11:02:57;;;;;;;2.90;2.57;;;18.50;99.90;;;;;;5014057;28;20277;-69
2021/08/28 11:05:29;;;;;;;3.10;2.40;;;18.50;99.90;;;;;;5014068;28;20409;-69
2021/08/28 11:07:56;;;;;;;1.60;1.50;;;18.70;99.90;;;;;;5014016;28;20399;-68
2021/08/28 11:10:24;;;;;;;2.10;1.80;;;18.60;99.90;;;;;;5014063;28;20786;-69
2021/08/28 11:12:52;;;;;;;2.00;1.80;;;18.60;99.90;;;;;;5013913;28;20428;-70
2021/08/28 11:15:27;;;;;;;1.80;1.70;;;19.10;99.90;;;;;;5013686;28;20807;-69
2021/08/28 11:17:54;;;;;;;4.10;2.23;;;19.50;99.90;;;;;;5013926;28;20416;-68
2021/08/28 11:20:25;;;;;;;2.03;1.63;;;19.80;99.90;;;;;;5012635;28;20528;-69
2021/08/28 11:22:51;;;;;;;3.57;3.10;;;19.50;99.90;;;;;;5013592;28;20927;-69
2021/08/28 11:25:19;;;;;;;1.70;1.60;;;19.70;99.90;;;;;;5013753;28;20896;-69
2021/08/28 11:27:47;;;;;;;2.20;2.00;;;19.80;99.90;;;;;;5013422;28;20877;-68
2021/08/28 11:30:14;;;;;;;2.70;1.83;;;19.50;99.90;;;;;;5013521;28;20467;-68
2021/08/28 11:32:40;;;;;;;1.90;1.80;;;19.40;99.90;;;;;;5013266;28;20432;-69
2021/08/28 11:35:06;;;;;;;2.00;1.80;;;19.40;99.90;;;;;;5013486;28;20408;-68
2021/08/28 11:37:32;;;;;;;2.53;1.80;;;19.50;99.90;;;;;;5013358;28;20193;-68
2021/08/28 11:40:23;;;;;;;1.90;1.77;;;19.60;99.90;;;;;;5013313;28;20511;-69
2021/08/28 11:42:48;;;;;;;1.97;1.80;;;19.50;99.90;;;;;;5013095;28;20182;-67
2021/08/28 11:45:17;;;;;;;1.60;1.20;;;19.40;99.90;;;;;;5013156;28;20400;-69
2021/08/28 11:47:43;;;;;;;2.07;1.60;;;19.30;99.90;;;;;;5013121;28;20172;-69
2021/08/28 11:50:08;;;;;;;2.03;1.60;;;19.50;99.90;;;;;;5012863;28;20509;-70
2021/08/28 11:52:34;;;;;;;1.97;1.60;;;19.90;99.90;;;;;;5012943;28;20188;-69
2021/08/28 11:55:02;;;;;;;1.93;1.50;;;20.10;99.90;;;;;;5013066;28;20403;-68
2021/08/28 11:57:27;;;;;;;1.97;1.70;;;20.10;99.90;;;;;;5012828;28;20894;-67
2021/08/28 11:59:53;;;;;;;1.60;1.50;;;20.00;99.90;;;;;;5012954;28;20431;-69
2021/08/28 12:02:20;;;;;;;1.63;1.53;;;20.20;99.90;;;;;;5012777;28;20273;-70
2021/08/28 12:04:46;;;;;;;1.90;1.70;;;20.10;99.90;;;;;;5012864;28;20638;-67
2021/08/28 12:07:12;;;;;;;2.03;1.90;;;20.50;99.90;;;;;;4995053;28;20417;-69
2021/08/28 12:09:38;;;;;;;1.70;1.60;;;20.10;99.90;;;;;;5012596;28;20846;-69
2021/08/28 12:12:03;;;;;;;2.87;2.67;;;20.60;99.90;;;;;;5013017;28;20979;-70
2021/08/28 12:14:31;;;;;;;5.77;5.20;;;20.50;99.90;;;;;;5012884;28;20181;-70
2021/08/28 12:16:57;;;;;;;1.60;1.50;;;20.80;99.90;;;;;;5012645;28;20194;-68
2021/08/28 12:19:25;;;;;;;3.80;1.80;;;20.90;99.90;;;;;;5012714;28;20406;-69
2021/08/28 12:21:53;;;;;;;1.90;1.80;;;20.40;99.90;;;;;;5012188;28;20451;-68
2021/08/28 12:24:27;;;;;;;1.83;1.73;;;20.50;99.90;;;;;;5012354;28;20405;-68
2021/08/28 12:27:07;;;;;;;2.47;1.80;;;20.50;99.90;;;;;;5013259;28;20434;-69
2021/08/28 12:29:36;;;;;;;2.00;1.80;;;20.40;99.90;;;;;;5012228;28;20405;-68
2021/08/28 12:32:12;;;;;;;1.80;1.60;;;20.40;99.90;;;;;;5012143;28;20417;-67
2021/08/28 12:34:43;;;;;;;1.50;1.40;;;20.40;99.90;;;;;;5012244;28;20418;-68
2021/08/28 12:37:13;;;;;;;1.57;1.30;;;20.70;99.90;;;;;;5013624;28;20400;-69
2021/08/28 12:39:41;;;;;;;2.13;1.33;;;20.60;99.90;;;;;;5013693;28;20406;-69
2021/08/28 12:42:11;;;;;;;2.03;1.83;;;20.60;99.90;;;;;;5013255;28;20436;-69
2021/08/28 12:44:37;;;;;;;2.23;1.83;;;20.50;99.90;;;;;;5012954;28;20406;-68
2021/08/28 12:47:03;;;;;;;2.97;1.67;;;21.10;99.90;;;;;;5011818;28;20405;-67